Sacre-Coeur, Canada
Current Conditions -  °F | °C
As of 4:00 PM on Tuesday 25 Nov 2014 (Local Time) from CYYY Reporting Station
Overcast Overcast  
Wind Chill:   Ceiling: 4000
Heat Index:   Visibility: 30mi
Dew Point: -1°   Wind: 17mph
Humidity: 61%   Direction: 230°SW
Pressure: 29.64"   Gusts: 25mph
Location:  48.43°N, 68.58°W
Report Text: CYYY 252100Z 23015G22KT 30SM OVC040 06/M01 A2964 RMK SC8 SLP037
Loading
Personal Weather Stations






























Interactive Weather Map New forecast layout! Learn more

10-Day Weather Forecast

Advertisements
Track Severe Weather on mobile